createdAt,value
2023-03-28T00:02:01.874Z,98195.19
2023-03-28T00:07:05.716Z,98196.84
2023-03-28T00:12:09.390Z,98191.66
2023-03-28T00:17:14.249Z,98188.06
2023-03-28T00:22:17.610Z,98205.16
2023-03-28T00:27:21.049Z,98210.13
2023-03-28T00:32:26.115Z,98210.22
2023-03-28T00:37:30.124Z,98212.66
2023-03-28T00:42:43.488Z,98225.31
2023-03-28T00:47:52.862Z,98221.84
2023-03-28T00:53:02.361Z,98226.94
2023-03-28T00:58:09.441Z,98230.22
2023-03-28T01:03:16.268Z,98225.81
2023-03-28T01:08:23.111Z,98214.50
2023-03-28T01:13:28.253Z,98238.50
2023-03-28T01:18:35.130Z,98244.34
2023-03-28T01:24:19.856Z,98245.88
2023-03-28T01:30:01.786Z,98251.66
2023-03-28T01:35:27.650Z,98257.69
2023-03-28T01:40:42.398Z,98251.72
2023-03-28T01:45:56.958Z,98244.88
2023-03-28T01:51:10.620Z,98254.13
2023-03-28T01:56:23.242Z,98260.03
2023-03-28T02:01:36.856Z,98255.59
2023-03-28T02:06:47.073Z,98265.78
2023-03-28T02:11:56.570Z,98270.03
2023-03-28T02:17:06.505Z,98276.75
2023-03-28T02:22:16.068Z,98272.28
2023-03-28T02:27:22.848Z,98280.81
2023-03-28T02:32:26.452Z,98282.56
2023-03-28T02:37:44.089Z,98276.59
2023-03-28T02:43:04.952Z,98292.03
2023-03-28T02:48:18.375Z,98294.69
2023-03-28T02:53:33.130Z,98309.97
2023-03-28T02:58:42.706Z,98300.44
2023-03-28T03:03:48.516Z,98321.63
2023-03-28T03:08:52.014Z,98326.66
2023-03-28T03:13:57.572Z,98331.78
2023-03-28T03:19:01.152Z,98327.44
2023-03-28T03:24:05.069Z,98327.59
2023-03-28T03:29:10.035Z,98345.66
2023-03-28T03:34:13.211Z,98344.75
2023-03-28T03:39:16.594Z,98353.09
2023-03-28T03:44:21.500Z,98349.84
2023-03-28T03:49:25.068Z,98358.53
2023-03-28T03:54:28.509Z,98362.72
2023-03-28T03:59:33.425Z,98370.75
2023-03-28T04:04:37.131Z,98363.88
2023-03-28T04:09:40.771Z,98368.06
2023-03-28T04:14:45.988Z,98367.63
2023-03-28T04:19:49.873Z,98369.78
2023-03-28T04:24:53.555Z,98370.09
2023-03-28T04:30:00.683Z,98376.53
2023-03-28T04:35:04.556Z,98366.50
2023-03-28T04:40:11.573Z,98378.63
2023-03-28T04:45:18.056Z,98371.00
2023-03-28T04:50:21.902Z,98377.84
2023-03-28T04:55:25.767Z,98387.44
2023-03-28T05:00:30.740Z,98387.50
2023-03-28T05:05:34.531Z,98397.75
2023-03-28T05:10:38.061Z,98391.75
2023-03-28T05:15:43.420Z,98389.69
2023-03-28T05:20:46.980Z,98394.91
2023-03-28T05:25:52.602Z,98397.78
2023-03-28T05:30:57.497Z,98393.53
2023-03-28T05:36:02.103Z,98403.31
2023-03-28T05:41:05.373Z,98409.56
2023-03-28T05:46:10.314Z,98410.94
2023-03-28T05:51:13.989Z,98420.66
2023-03-28T05:56:17.602Z,98414.22
2023-03-28T06:01:23.534Z,98422.25
2023-03-28T06:06:27.690Z,98427.81
2023-03-28T06:11:31.331Z,98430.50
2023-03-28T06:16:36.683Z,98428.63
2023-03-28T06:21:40.152Z,98438.50
2023-03-28T06:26:43.906Z,98429.03
2023-03-28T06:31:48.758Z,98437.22
2023-03-28T06:36:52.307Z,98439.38
2023-03-28T06:41:55.714Z,98435.22
2023-03-28T06:47:00.829Z,98428.94
2023-03-28T06:52:04.348Z,98437.69
2023-03-28T06:57:07.791Z,98438.59
2023-03-28T07:02:13.565Z,98434.06
2023-03-28T07:07:17.229Z,98444.38
2023-03-28T07:12:20.769Z,98437.47
2023-03-28T07:17:25.766Z,98431.94
2023-03-28T07:22:29.712Z,98438.28
2023-03-28T07:27:33.164Z,98429.69
2023-03-28T07:32:49.697Z,98443.78
2023-03-28T07:37:58.152Z,98451.03
2023-03-28T07:43:02.366Z,98434.19
2023-03-28T07:48:08.019Z,98447.16
2023-03-28T07:53:11.729Z,98451.63
2023-03-28T07:58:15.723Z,98449.94
2023-03-28T08:03:20.485Z,98454.59
2023-03-28T08:08:24.086Z,98454.19
2023-03-28T08:13:27.843Z,98460.47
2023-03-28T08:18:32.712Z,98468.97
2023-03-28T08:23:36.861Z,98477.03
2023-03-28T08:28:41.395Z,98465.38
2023-03-28T08:33:47.340Z,98470.34
2023-03-28T08:38:51.781Z,98469.72
2023-03-28T08:44:02.439Z,98473.16
2023-03-28T08:49:13.042Z,98459.78
2023-03-28T08:54:22.286Z,98458.75
2023-03-28T08:59:31.143Z,98453.31
2023-03-28T09:04:37.499Z,98455.06
2023-03-28T09:09:49.214Z,98449.78
2023-03-28T09:15:29.218Z,98452.56
2023-03-28T09:20:43.097Z,98446.06
2023-03-28T09:25:52.542Z,98440.91
2023-03-28T09:31:00.183Z,98445.94
2023-03-28T09:36:12.903Z,98451.38
2023-03-28T09:41:21.406Z,98434.34
2023-03-28T09:46:31.964Z,98435.47
2023-03-28T09:51:38.673Z,98438.44
2023-03-28T09:56:45.667Z,98442.34
2023-03-28T10:01:52.368Z,98441.13
2023-03-28T10:07:17.451Z,98429.56
2023-03-28T10:12:22.402Z,98432.69
2023-03-28T10:17:31.379Z,98454.31
2023-03-28T10:22:39.405Z,98453.66
2023-03-28T10:27:43.210Z,98462.97
2023-03-28T10:32:46.844Z,98452.91
2023-03-28T10:37:56.316Z,98432.53
2023-03-28T10:43:01.103Z,98435.25
2023-03-28T10:48:09.375Z,98446.91
2023-03-28T10:53:33.406Z,98440.97
2023-03-28T10:58:40.074Z,98437.72
2023-03-28T11:03:59.895Z,98438.72
2023-03-28T11:09:12.400Z,98445.13
2023-03-28T11:14:34.586Z,98435.72
2023-03-28T11:19:58.155Z,98441.16
2023-03-28T11:25:22.009Z,98430.63
2023-03-28T11:30:33.630Z,98421.81
2023-03-28T11:35:42.249Z,98426.66
2023-03-28T11:40:55.243Z,98419.94
2023-03-28T11:46:04.946Z,98424.75
2023-03-28T11:51:13.545Z,98433.44
2023-03-28T11:56:29.889Z,98424.56
2023-03-28T12:01:38.602Z,98417.03
2023-03-28T12:06:59.560Z,98410.00
2023-03-28T12:12:14.098Z,98415.44
2023-03-28T12:17:22.330Z,98407.81
2023-03-28T12:22:30.555Z,98404.66
2023-03-28T12:27:45.281Z,98400.41
2023-03-28T12:32:58.450Z,98403.50
2023-03-28T12:38:19.799Z,98387.38
2023-03-28T12:43:30.752Z,98400.47
2023-03-28T12:48:39.084Z,98391.91
2023-03-28T12:53:47.561Z,98400.22
2023-03-28T12:58:54.519Z,98391.94
2023-03-28T13:04:07.769Z,98388.06
2023-03-28T13:09:40.449Z,98381.94
2023-03-28T13:14:59.650Z,98379.19
2023-03-28T13:20:27.688Z,98379.53
2023-03-28T13:25:33.536Z,98375.53
2023-03-28T13:30:44.000Z,98367.50
2023-03-28T13:35:49.991Z,98350.41
2023-03-28T13:40:59.845Z,98352.47
2023-03-28T13:46:09.967Z,98360.16
2023-03-28T13:51:18.400Z,98358.50
2023-03-28T13:56:25.491Z,98364.22
2023-03-28T14:01:37.398Z,98354.63
2023-03-28T14:06:43.024Z,98348.91
2023-03-28T14:11:47.102Z,98346.22
2023-03-28T14:16:53.260Z,98354.97
2023-03-28T14:21:56.968Z,98355.91
2023-03-28T14:27:14.235Z,98340.19
2023-03-28T14:32:26.935Z,98338.66
2023-03-28T14:37:30.488Z,98351.53
2023-03-28T14:42:34.227Z,98339.81
2023-03-28T14:47:41.754Z,98339.34
2023-03-28T14:52:45.258Z,98349.03
2023-03-28T14:57:52.227Z,98343.22
2023-03-28T15:02:57.700Z,98345.19
2023-03-28T15:08:03.142Z,98341.91
2023-03-28T15:13:10.630Z,98325.00
2023-03-28T15:18:17.825Z,98336.34
2023-03-28T15:23:27.616Z,98333.34
2023-03-28T15:28:32.564Z,98334.44
2023-03-28T15:33:37.485Z,98333.72
2023-03-28T15:38:41.686Z,98338.22
2023-03-28T15:43:59.715Z,98328.00
2023-03-28T15:49:06.894Z,98334.22
2023-03-28T15:54:23.872Z,98328.31
2023-03-28T15:59:35.738Z,98328.53
2023-03-28T16:04:40.738Z,98333.13
2023-03-28T16:09:44.278Z,98341.03
2023-03-28T16:14:50.137Z,98325.56
2023-03-28T16:19:55.030Z,98335.94
2023-03-28T16:24:58.292Z,98336.91
2023-03-28T16:30:01.815Z,98339.63
2023-03-28T16:35:08.605Z,98354.28
2023-03-28T16:40:13.084Z,98355.22
2023-03-28T16:45:16.754Z,98353.56
2023-03-28T16:50:21.628Z,98356.22
2023-03-28T16:55:25.183Z,98358.84
2023-03-28T17:00:28.834Z,98364.06
2023-03-28T17:05:33.827Z,98375.31
2023-03-28T17:10:40.338Z,98381.38
2023-03-28T17:15:44.624Z,98379.75
2023-03-28T17:20:59.677Z,98377.16
2023-03-28T17:26:03.240Z,98375.44
2023-03-28T17:31:08.072Z,98373.78
2023-03-28T17:36:21.753Z,98382.34
2023-03-28T17:41:27.856Z,98377.19
2023-03-28T17:46:31.910Z,98383.19
2023-03-28T17:51:36.912Z,98384.88
2023-03-28T17:56:40.987Z,98390.88
2023-03-28T18:01:44.814Z,98388.28
2023-03-28T18:06:49.964Z,98391.66
2023-03-28T18:11:53.489Z,98389.06
2023-03-28T18:16:58.447Z,98395.13
2023-03-28T18:22:03.375Z,98395.13
2023-03-28T18:27:06.960Z,98399.50
2023-03-28T18:32:10.442Z,98390.88
2023-03-28T18:37:15.426Z,98402.91
2023-03-28T18:42:18.689Z,98403.75
2023-03-28T18:47:22.074Z,98396.84
2023-03-28T18:52:29.722Z,98406.31
2023-03-28T18:57:33.682Z,98404.63
2023-03-28T19:02:37.678Z,98398.59
2023-03-28T19:07:43.220Z,98395.06
2023-03-28T19:12:47.218Z,98399.38
2023-03-28T19:17:51.138Z,98397.66
2023-03-28T19:22:56.005Z,98395.94
2023-03-28T19:27:59.457Z,98388.19
2023-03-28T19:33:05.611Z,98399.41
2023-03-28T19:38:11.698Z,98389.94
2023-03-28T19:43:15.547Z,98386.56
2023-03-28T19:48:19.077Z,98384.00
2023-03-28T19:53:23.923Z,98387.47
2023-03-28T19:58:28.349Z,98385.78
2023-03-28T20:03:31.833Z,98393.53
2023-03-28T20:08:36.816Z,98388.38
2023-03-28T20:13:40.828Z,98385.81
2023-03-28T20:18:44.651Z,98382.41
2023-03-28T20:23:49.540Z,98385.81
2023-03-28T20:28:56.976Z,98383.22
2023-03-28T20:34:00.662Z,98374.63
2023-03-28T20:39:07.069Z,98363.44
2023-03-28T20:44:10.616Z,98379.78
2023-03-28T20:49:14.091Z,98372.03
2023-03-28T20:54:21.915Z,98366.03
2023-03-28T20:59:27.363Z,98361.72
2023-03-28T21:04:30.754Z,98362.59
2023-03-28T21:09:35.622Z,98360.88
2023-03-28T21:14:38.727Z,98361.72
2023-03-28T21:19:42.487Z,98351.44
2023-03-28T21:24:47.569Z,98349.72
2023-03-28T21:29:51.017Z,98347.09
2023-03-28T21:34:57.561Z,98343.66
2023-03-28T21:40:02.407Z,98338.50
2023-03-28T21:45:07.846Z,98337.66
2023-03-28T21:50:14.821Z,98338.50
2023-03-28T21:55:19.884Z,98332.50
2023-03-28T22:00:23.094Z,98330.75
2023-03-28T22:05:29.619Z,98325.63
2023-03-28T22:10:35.636Z,98315.34
2023-03-28T22:15:39.503Z,98315.34
2023-03-28T22:20:44.014Z,98313.63
2023-03-28T22:25:49.628Z,98302.44
2023-03-28T22:30:55.681Z,98303.31
2023-03-28T22:35:59.228Z,98296.44
2023-03-28T22:41:04.354Z,98284.41
2023-03-28T22:46:08.278Z,98284.41
2023-03-28T22:51:14.105Z,98256.06
2023-03-28T22:56:19.418Z,98277.53
2023-03-28T23:01:26.226Z,98271.50
2023-03-28T23:06:29.751Z,98274.03
2023-03-28T23:11:34.701Z,98284.38
2023-03-28T23:16:38.636Z,98280.06
2023-03-28T23:21:43.063Z,98279.19
2023-03-28T23:26:48.007Z,98276.59
2023-03-28T23:31:51.167Z,98270.63
2023-03-28T23:36:58.172Z,98265.47
2023-03-28T23:42:03.068Z,98273.19
2023-03-28T23:47:06.353Z,98272.34
2023-03-28T23:52:10.140Z,98268.03
2023-03-28T23:57:15.106Z,98261.22
